Truckee, CA

7:32 PM PDT on June 01, 2015 (GMT -0700)
Martiswoods Estates | | Change Station
CLOSE
Current Station
Personal Weather Station
Location: Truckee, CA
Elevation: 6220 ft
Nearby Weather Stations
Active Advisory: Lake Wind Advisory

Elev 6220 ft 39.31 °N, 120.18 °W | Updated 4 seconds ago

Mostly Cloudy
Mostly Cloudy
54.7 °F
Feels Like 54.7 °F
N
0.4
Wind Variable Wind from South
Gusts 2.5 mph

Today
High -- | Low -- °F
--% Chance of Precip.
Yesterday
High -- | Low -- °F
Precip. -- in
5:36 AM 8:21 PM
Full, 100% visible
Pressure 30.11 in
Visibility 10.0 miles
Clouds Mostly Cloudy 4600 ft
Mostly Cloudy 6000 ft
Dew Point 40 °F
Humidity 57%
Rainfall 0.00 in
Snow Depth Not available.
UV 0.0 out of 12
Pollen 7.00 out of 12
Air Quality Not available.
Flu Activity Sporadic
METAR KTRK 020215Z AUTO 23006G09KT 10SM BKN046 BKN060 13/03 A3011 RMK AO2

More Conditions Fewer Conditions

Pressure 30.11 in
Visibility 10.0 miles
Clouds Mostly Cloudy 4600 ft
Mostly Cloudy 6000 ft
Dew Point 40 °F
Humidity 57%
Rainfall 0.00 in
Snow Depth Not available.
UV 0.0 out of 12
Pollen 7.00 out of 12
Air Quality Not available.
Flu Activity Sporadic
METAR KTRK 020215Z AUTO 23006G09KT 10SM BKN046 BKN060 13/03 A3011 RMK AO2

More Conditions Fewer Conditions

10-Day Weather Forecast

Almanac

Astronomy

Jun. 01, 2015 Rise Set
Actual Time
Civil Twilight
Nautical Twilight
Astronomical Twilight
Moon
Length of Visible Light
Length of Day
Tomorrow will be .
, % of the Moon is Illuminated

Today's Extremes

State Highs State Lows

Community

WunderPhotos

Upload Photos

1,825,858 photos uploaded!

WunderBlogs® & News

Nearby

Air Quality

  Air Quality AQ Index Pollutant
Not available.

Snow Depth

Station Depth Elevation

Earthquake Activity

City Distance Mag. Time & Date
Minimum magnitude displayed is 2.5.

Coastal Water Temperatures

Place Temperature

Stations

Nearby Weather Stations

Station Location Temp. Windchill Dew Point Humidity Wind Precip. Elev Updated Type
                   
Lake Wind Advisory
Statement as of 3:34 PM PDT on June 01, 2015

... Lake Wind Advisory remains in effect until 8 PM PDT this
evening...

A lake Wind Advisory remains in effect until 8 PM PDT this
evening.

* Winds: southwest to west 15 to 20 mph with gusts up to 35 mph.

* Wave heights on lake tahoe: 2 to 3 feet for mid lake to north
and east shores.

* Small boats will be prone to capsizing and should remain off
lake waters until conditions improve.

Precautionary/preparedness actions...

Check our website at weather.Gov/Reno or listen to NOAA Weather
Radio for updates on this situation.